sensor_id;sensor_type;location;lat;lon;timestamp;pressure;altitude;pressure_sealevel;temperature;humidity
6198;BME280;3132;42.622;23.328;2023-02-28T00:00:07;93217.03;;;6.82;100.00
6198;BME280;3132;42.622;23.328;2023-02-28T00:02:39;93212.50;;;6.94;100.00
6198;BME280;3132;42.622;23.328;2023-02-28T00:05:06;93207.06;;;6.74;100.00
6198;BME280;3132;42.622;23.328;2023-02-28T00:07:32;93222.72;;;6.79;100.00
6198;BME280;3132;42.622;23.328;2023-02-28T00:09:58;93222.06;;;6.89;100.00
6198;BME280;3132;42.622;23.328;2023-02-28T00:12:24;93207.03;;;6.69;100.00
6198;BME280;3132;42.622;23.328;2023-02-28T00:14:49;93235.75;;;6.84;100.00
6198;BME280;3132;42.622;23.328;2023-02-28T00:17:15;93217.53;;;6.79;100.00
6198;BME280;3132;42.622;23.328;2023-02-28T00:19:43;93213.84;;;6.75;100.00
6198;BME280;3132;42.622;23.328;2023-02-28T00:22:09;93226.91;;;6.80;100.00
6198;BME280;3132;42.622;23.328;2023-02-28T00:24:35;93234.06;;;6.95;100.00
6198;BME280;3132;42.622;23.328;2023-02-28T00:27:00;93234.63;;;6.97;100.00
6198;BME280;3132;42.622;23.328;2023-02-28T00:29:25;93230.22;;;6.97;100.00
6198;BME280;3132;42.622;23.328;2023-02-28T00:31:51;93228.06;;;6.73;100.00
6198;BME280;3132;42.622;23.328;2023-02-28T00:34:16;93206.72;;;6.66;100.00
6198;BME280;3132;42.622;23.328;2023-02-28T00:36:41;93220.84;;;6.75;100.00
6198;BME280;3132;42.622;23.328;2023-02-28T00:39:10;93212.47;;;6.89;100.00
6198;BME280;3132;42.622;23.328;2023-02-28T00:41:36;93201.69;;;6.59;100.00
6198;BME280;3132;42.622;23.328;2023-02-28T00:44:01;93226.28;;;6.73;100.00
6198;BME280;3132;42.622;23.328;2023-02-28T00:46:27;93222.72;;;6.79;100.00
6198;BME280;3132;42.622;23.328;2023-02-28T00:48:52;93224.72;;;6.72;100.00
6198;BME280;3132;42.622;23.328;2023-02-28T00:51:17;93212.22;;;6.69;100.00
6198;BME280;3132;42.622;23.328;2023-02-28T00:53:43;93216.22;;;6.60;100.00
6198;BME280;3132;42.622;23.328;2023-02-28T00:56:08;93217.34;;;6.64;100.00
6198;BME280;3132;42.622;23.328;2023-02-28T00:58:34;93215.06;;;6.51;100.00
6198;BME280;3132;42.622;23.328;2023-02-28T01:00:59;93194.03;;;6.31;100.00
6198;BME280;3132;42.622;23.328;2023-02-28T01:03:24;93231.03;;;6.43;100.00
6198;BME280;3132;42.622;23.328;2023-02-28T01:05:50;93221.72;;;6.25;100.00
6198;BME280;3132;42.622;23.328;2023-02-28T01:08:15;93211.09;;;6.10;100.00
6198;BME280;3132;42.622;23.328;2023-02-28T01:10:41;93207.09;;;6.03;100.00
6198;BME280;3132;42.622;23.328;2023-02-28T01:13:07;93218.34;;;6.08;100.00
6198;BME280;3132;42.622;23.328;2023-02-28T01:15:32;93229.72;;;6.07;100.00
6198;BME280;3132;42.622;23.328;2023-02-28T01:17:58;93208.03;;;5.97;100.00
6198;BME280;3132;42.622;23.328;2023-02-28T01:20:24;93217.38;;;5.98;100.00
6198;BME280;3132;42.622;23.328;2023-02-28T01:22:49;93214.78;;;5.98;100.00
6198;BME280;3132;42.622;23.328;2023-02-28T01:25:15;93212.13;;;5.93;100.00
6198;BME280;3132;42.622;23.328;2023-02-28T01:27:40;93216.44;;;5.87;100.00
6198;BME280;3132;42.622;23.328;2023-02-28T01:30:07;93207.91;;;6.03;100.00
6198;BME280;3132;42.622;23.328;2023-02-28T01:32:33;93203.09;;;6.12;100.00
6198;BME280;3132;42.622;23.328;2023-02-28T01:34:59;93205.00;;;5.72;100.00
6198;BME280;3132;42.622;23.328;2023-02-28T01:37:25;93217.78;;;6.06;100.00
6198;BME280;3132;42.622;23.328;2023-02-28T01:39:50;93208.13;;;6.18;100.00
6198;BME280;3132;42.622;23.328;2023-02-28T01:42:16;93205.69;;;6.12;100.00
6198;BME280;3132;42.622;23.328;2023-02-28T01:45:06;93220.06;;;6.19;100.00
6198;BME280;3132;42.622;23.328;2023-02-28T01:47:43;93225.47;;;6.18;100.00
6198;BME280;3132;42.622;23.328;2023-02-28T01:50:15;93202.38;;;6.00;100.00
6198;BME280;3132;42.622;23.328;2023-02-28T01:52:42;93226.09;;;6.25;100.00
6198;BME280;3132;42.622;23.328;2023-02-28T01:55:10;93224.06;;;6.27;100.00
6198;BME280;3132;42.622;23.328;2023-02-28T01:57:45;93197.13;;;6.28;100.00
6198;BME280;3132;42.622;23.328;2023-02-28T02:00:14;93221.75;;;6.30;100.00
6198;BME280;3132;42.622;23.328;2023-02-28T02:02:45;93208.81;;;6.14;100.00
6198;BME280;3132;42.622;23.328;2023-02-28T02:05:22;93229.25;;;6.27;100.00
6198;BME280;3132;42.622;23.328;2023-02-28T02:07:51;93223.44;;;6.20;100.00
6198;BME280;3132;42.622;23.328;2023-02-28T02:10:21;93225.31;;;6.08;100.00
6198;BME280;3132;42.622;23.328;2023-02-28T02:15:34;93171.94;;;6.07;100.00
6198;BME280;3132;42.622;23.328;2023-02-28T02:24:09;93211.09;;;6.27;100.00
6198;BME280;3132;42.622;23.328;2023-02-28T02:35:15;93198.50;;;5.69;100.00
6198;BME280;3132;42.622;23.328;2023-02-28T02:37:47;93209.94;;;6.01;100.00
6198;BME280;3132;42.622;23.328;2023-02-28T02:40:25;93216.13;;;6.17;100.00
6198;BME280;3132;42.622;23.328;2023-02-28T02:42:57;93224.69;;;6.01;100.00
6198;BME280;3132;42.622;23.328;2023-02-28T02:45:59;93217.22;;;6.04;100.00
6198;BME280;3132;42.622;23.328;2023-02-28T02:48:30;93206.06;;;6.04;100.00
6198;BME280;3132;42.622;23.328;2023-02-28T02:51:00;93220.44;;;5.95;100.00
6198;BME280;3132;42.622;23.328;2023-02-28T02:53:35;93205.91;;;5.77;100.00
6198;BME280;3132;42.622;23.328;2023-02-28T02:56:03;93191.97;;;5.67;100.00
6198;BME280;3132;42.622;23.328;2023-02-28T02:58:35;93224.91;;;5.83;100.00
6198;BME280;3132;42.622;23.328;2023-02-28T03:01:08;93235.00;;;5.68;100.00
6198;BME280;3132;42.622;23.328;2023-02-28T03:03:35;93212.44;;;5.52;100.00
6198;BME280;3132;42.622;23.328;2023-02-28T03:06:02;93239.63;;;5.66;100.00
6198;BME280;3132;42.622;23.328;2023-02-28T03:08:30;93249.41;;;5.64;100.00
6198;BME280;3132;42.622;23.328;2023-02-28T03:11:12;93248.19;;;5.66;100.00
6198;BME280;3132;42.622;23.328;2023-02-28T03:19:26;93263.41;;;5.91;100.00
6198;BME280;3132;42.622;23.328;2023-02-28T03:25:00;93261.13;;;5.94;100.00
6198;BME280;3132;42.622;23.328;2023-02-28T03:27:42;93248.00;;;5.84;100.00
6198;BME280;3132;42.622;23.328;2023-02-28T03:30:44;93268.22;;;5.99;100.00
6198;BME280;3132;42.622;23.328;2023-02-28T03:33:27;93262.31;;;6.03;100.00
6198;BME280;3132;42.622;23.328;2023-02-28T03:36:09;93276.22;;;6.14;100.00
6198;BME280;3132;42.622;23.328;2023-02-28T03:41:25;93271.88;;;6.03;100.00
6198;BME280;3132;42.622;23.328;2023-02-28T03:43:56;93271.50;;;6.11;100.00
6198;BME280;3132;42.622;23.328;2023-02-28T03:46:25;93279.38;;;6.16;100.00
6198;BME280;3132;42.622;23.328;2023-02-28T03:48:56;93272.91;;;6.02;100.00
6198;BME280;3132;42.622;23.328;2023-02-28T03:51:26;93269.41;;;5.80;100.00
6198;BME280;3132;42.622;23.328;2023-02-28T03:53:55;93280.94;;;6.00;100.00
6198;BME280;3132;42.622;23.328;2023-02-28T03:56:29;93279.75;;;5.80;100.00
6198;BME280;3132;42.622;23.328;2023-02-28T03:59:10;93248.22;;;5.83;100.00
6198;BME280;3132;42.622;23.328;2023-02-28T04:01:41;93265.78;;;5.81;100.00
6198;BME280;3132;42.622;23.328;2023-02-28T04:04:12;93273.84;;;5.96;100.00
6198;BME280;3132;42.622;23.328;2023-02-28T04:06:38;93279.31;;;5.83;100.00
6198;BME280;3132;42.622;23.328;2023-02-28T04:09:05;93284.28;;;5.73;100.00
6198;BME280;3132;42.622;23.328;2023-02-28T04:11:34;93277.69;;;5.65;100.00
6198;BME280;3132;42.622;23.328;2023-02-28T04:14:04;93271.88;;;5.58;100.00
6198;BME280;3132;42.622;23.328;2023-02-28T04:16:31;93285.69;;;5.64;100.00
6198;BME280;3132;42.622;23.328;2023-02-28T04:18:57;93278.19;;;5.79;100.00
6198;BME280;3132;42.622;23.328;2023-02-28T04:21:29;93275.97;;;5.71;100.00
6198;BME280;3132;42.622;23.328;2023-02-28T04:23:55;93246.09;;;5.52;100.00
6198;BME280;3132;42.622;23.328;2023-02-28T04:26:20;93271.19;;;5.79;100.00
6198;BME280;3132;42.622;23.328;2023-02-28T04:28:45;93273.38;;;5.71;100.00
6198;BME280;3132;42.622;23.328;2023-02-28T04:31:11;93230.94;;;5.44;100.00
6198;BME280;3132;42.622;23.328;2023-02-28T04:33:36;93260.66;;;5.69;100.00
6198;BME280;3132;42.622;23.328;2023-02-28T04:36:07;93271.78;;;5.70;100.00
6198;BME280;3132;42.622;23.328;2023-02-28T04:38:35;93282.59;;;5.78;100.00
6198;BME280;3132;42.622;23.328;2023-02-28T04:41:01;93284.00;;;5.69;100.00
6198;BME280;3132;42.622;23.328;2023-02-28T04:43:27;93263.25;;;5.69;100.00
6198;BME280;3132;42.622;23.328;2023-02-28T04:45:54;93285.59;;;5.87;100.00
6198;BME280;3132;42.622;23.328;2023-02-28T04:48:24;93295.53;;;5.78;100.00
6198;BME280;3132;42.622;23.328;2023-02-28T04:50:50;93280.59;;;5.69;100.00
6198;BME280;3132;42.622;23.328;2023-02-28T04:53:15;93292.72;;;5.80;100.00
6198;BME280;3132;42.622;23.328;2023-02-28T04:55:41;93310.13;;;5.96;100.00
6198;BME280;3132;42.622;23.328;2023-02-28T04:58:06;93305.78;;;5.85;100.00
6198;BME280;3132;42.622;23.328;2023-02-28T05:00:31;93307.03;;;5.82;100.00
6198;BME280;3132;42.622;23.328;2023-02-28T05:02:57;93298.63;;;5.64;100.00
6198;BME280;3132;42.622;23.328;2023-02-28T05:05:22;93297.16;;;5.68;100.00
6198;BME280;3132;42.622;23.328;2023-02-28T05:07:48;93292.00;;;5.68;100.00
6198;BME280;3132;42.622;23.328;2023-02-28T05:10:13;93297.06;;;5.63;100.00
6198;BME280;3132;42.622;23.328;2023-02-28T05:12:38;93300.69;;;5.62;100.00
6198;BME280;3132;42.622;23.328;2023-02-28T05:15:04;93281.72;;;5.45;100.00
6198;BME280;3132;42.622;23.328;2023-02-28T05:17:31;93315.75;;;5.65;100.00
6198;BME280;3132;42.622;23.328;2023-02-28T05:19:56;93317.06;;;5.79;100.00
6198;BME280;3132;42.622;23.328;2023-02-28T05:22:22;93321.09;;;5.86;100.00
6198;BME280;3132;42.622;23.328;2023-02-28T05:24:47;93322.78;;;5.81;100.00
6198;BME280;3132;42.622;23.328;2023-02-28T05:27:13;93322.00;;;5.80;100.00
6198;BME280;3132;42.622;23.328;2023-02-28T05:29:38;93293.75;;;5.79;100.00
6198;BME280;3132;42.622;23.328;2023-02-28T05:32:11;93297.34;;;5.78;100.00
6198;BME280;3132;42.622;23.328;2023-02-28T05:34:38;93328.09;;;6.02;100.00
6198;BME280;3132;42.622;23.328;2023-02-28T05:37:04;93335.50;;;6.10;100.00
6198;BME280;3132;42.622;23.328;2023-02-28T05:39:30;93329.81;;;6.25;100.00
6198;BME280;3132;42.622;23.328;2023-02-28T05:41:55;93322.41;;;6.00;100.00
6198;BME280;3132;42.622;23.328;2023-02-28T05:44:20;93315.47;;;5.89;100.00
6198;BME280;3132;42.622;23.328;2023-02-28T05:46:46;93346.16;;;6.25;100.00
6198;BME280;3132;42.622;23.328;2023-02-28T05:49:11;93314.06;;;6.15;100.00
6198;BME280;3132;42.622;23.328;2023-02-28T05:51:37;93323.53;;;6.21;100.00
6198;BME280;3132;42.622;23.328;2023-02-28T05:54:05;93339.88;;;6.38;100.00
6198;BME280;3132;42.622;23.328;2023-02-28T05:56:30;93329.50;;;6.38;100.00
6198;BME280;3132;42.622;23.328;2023-02-28T05:58:56;93338.78;;;6.34;100.00
6198;BME280;3132;42.622;23.328;2023-02-28T06:01:37;93346.72;;;6.44;100.00
6198;BME280;3132;42.622;23.328;2023-02-28T06:04:04;93310.47;;;6.16;100.00
6198;BME280;3132;42.622;23.328;2023-02-28T06:06:31;93346.56;;;6.50;100.00
6198;BME280;3132;42.622;23.328;2023-02-28T06:08:56;93347.44;;;6.39;100.00
6198;BME280;3132;42.622;23.328;2023-02-28T06:11:22;93337.00;;;5.90;100.00
6198;BME280;3132;42.622;23.328;2023-02-28T06:13:54;93350.59;;;5.85;100.00
6198;BME280;3132;42.622;23.328;2023-02-28T06:16:21;93351.66;;;6.01;100.00
6198;BME280;3132;42.622;23.328;2023-02-28T06:18:46;93349.03;;;5.73;100.00
6198;BME280;3132;42.622;23.328;2023-02-28T06:21:12;93313.13;;;6.04;100.00
6198;BME280;3132;42.622;23.328;2023-02-28T06:23:38;93340.78;;;5.99;100.00
6198;BME280;3132;42.622;23.328;2023-02-28T06:26:03;93353.16;;;6.41;100.00
6198;BME280;3132;42.622;23.328;2023-02-28T06:28:29;93342.31;;;6.28;100.00
6198;BME280;3132;42.622;23.328;2023-02-28T06:30:54;93346.06;;;6.37;100.00
6198;BME280;3132;42.622;23.328;2023-02-28T06:33:20;93355.31;;;6.61;100.00
6198;BME280;3132;42.622;23.328;2023-02-28T06:35:52;93359.44;;;6.95;100.00
6198;BME280;3132;42.622;23.328;2023-02-28T06:38:18;93365.97;;;6.98;100.00
6198;BME280;3132;42.622;23.328;2023-02-28T06:40:44;93354.16;;;7.07;100.00
6198;BME280;3132;42.622;23.328;2023-02-28T06:43:09;93367.78;;;7.35;100.00
6198;BME280;3132;42.622;23.328;2023-02-28T06:45:41;93367.03;;;7.56;100.00
6198;BME280;3132;42.622;23.328;2023-02-28T06:48:07;93325.00;;;7.21;100.00
6198;BME280;3132;42.622;23.328;2023-02-28T06:50:32;93352.38;;;7.29;100.00
6198;BME280;3132;42.622;23.328;2023-02-28T06:52:58;93362.53;;;7.52;100.00
6198;BME280;3132;42.622;23.328;2023-02-28T06:55:23;93376.47;;;7.24;100.00
6198;BME280;3132;42.622;23.328;2023-02-28T06:57:49;93336.97;;;7.22;100.00
6198;BME280;3132;42.622;23.328;2023-02-28T07:00:15;93379.16;;;7.51;100.00
6198;BME280;3132;42.622;23.328;2023-02-28T07:02:41;93381.06;;;7.01;100.00
6198;BME280;3132;42.622;23.328;2023-02-28T07:05:07;93385.31;;;7.07;100.00
6198;BME280;3132;42.622;23.328;2023-02-28T07:07:32;93376.13;;;7.37;100.00
6198;BME280;3132;42.622;23.328;2023-02-28T07:09:58;93375.22;;;7.27;100.00
6198;BME280;3132;42.622;23.328;2023-02-28T07:12:23;93358.19;;;7.36;100.00
6198;BME280;3132;42.622;23.328;2023-02-28T07:14:49;93329.38;;;7.37;100.00
6198;BME280;3132;42.622;23.328;2023-02-28T07:17:14;93352.34;;;7.67;100.00
6198;BME280;3132;42.622;23.328;2023-02-28T07:19:40;93360.38;;;7.65;100.00
6198;BME280;3132;42.622;23.328;2023-02-28T07:22:06;93372.03;;;7.41;100.00
6198;BME280;3132;42.622;23.328;2023-02-28T07:24:32;93381.00;;;7.93;100.00
6198;BME280;3132;42.622;23.328;2023-02-28T07:26:57;93388.81;;;8.42;100.00
6198;BME280;3132;42.622;23.328;2023-02-28T07:29:24;93373.25;;;8.47;100.00
6198;BME280;3132;42.622;23.328;2023-02-28T07:31:50;93376.91;;;8.51;100.00
6198;BME280;3132;42.622;23.328;2023-02-28T07:34:18;93386.03;;;8.53;100.00
6198;BME280;3132;42.622;23.328;2023-02-28T07:36:44;93387.81;;;8.74;100.00
6198;BME280;3132;42.622;23.328;2023-02-28T07:39:09;93379.75;;;8.76;100.00
6198;BME280;3132;42.622;23.328;2023-02-28T07:41:35;93377.56;;;8.36;100.00
6198;BME280;3132;42.622;23.328;2023-02-28T07:44:04;93389.50;;;8.32;100.00
6198;BME280;3132;42.622;23.328;2023-02-28T07:46:30;93364.53;;;7.66;100.00
6198;BME280;3132;42.622;23.328;2023-02-28T07:49:00;93314.16;;;7.24;100.00
6198;BME280;3132;42.622;23.328;2023-02-28T07:51:26;93383.09;;;7.53;100.00
6198;BME280;3132;42.622;23.328;2023-02-28T07:53:51;93389.53;;;8.15;100.00
6198;BME280;3132;42.622;23.328;2023-02-28T07:56:16;93377.38;;;8.21;100.00
6198;BME280;3132;42.622;23.328;2023-02-28T07:58:42;93373.56;;;8.55;100.00
6198;BME280;3132;42.622;23.328;2023-02-28T08:01:09;93381.47;;;8.97;100.00
6198;BME280;3132;42.622;23.328;2023-02-28T08:03:35;93378.03;;;9.28;100.00
6198;BME280;3132;42.622;23.328;2023-02-28T08:06:02;93372.31;;;9.26;100.00
6198;BME280;3132;42.622;23.328;2023-02-28T08:08:27;93367.66;;;9.38;100.00
6198;BME280;3132;42.622;23.328;2023-02-28T08:11:01;93387.28;;;9.50;100.00
6198;BME280;3132;42.622;23.328;2023-02-28T08:13:28;93379.09;;;9.32;100.00
6198;BME280;3132;42.622;23.328;2023-02-28T08:15:54;93357.72;;;9.30;100.00
6198;BME280;3132;42.622;23.328;2023-02-28T08:18:21;93384.44;;;8.79;100.00
6198;BME280;3132;42.622;23.328;2023-02-28T08:20:46;93371.84;;;8.66;100.00
6198;BME280;3132;42.622;23.328;2023-02-28T08:23:12;93382.00;;;8.36;100.00
6198;BME280;3132;42.622;23.328;2023-02-28T08:25:37;93367.47;;;8.18;100.00
6198;BME280;3132;42.622;23.328;2023-02-28T08:28:03;93367.03;;;7.78;100.00
6198;BME280;3132;42.622;23.328;2023-02-28T08:30:28;93384.00;;;7.85;100.00
6198;BME280;3132;42.622;23.328;2023-02-28T08:32:54;93375.75;;;7.67;100.00
6198;BME280;3132;42.622;23.328;2023-02-28T08:35:20;93389.19;;;8.07;100.00
6198;BME280;3132;42.622;23.328;2023-02-28T08:37:49;93390.22;;;8.28;100.00
6198;BME280;3132;42.622;23.328;2023-02-28T08:40:15;93383.41;;;7.78;100.00
6198;BME280;3132;42.622;23.328;2023-02-28T08:42:46;93390.72;;;8.03;100.00
6198;BME280;3132;42.622;23.328;2023-02-28T08:45:13;93394.03;;;8.20;100.00
6198;BME280;3132;42.622;23.328;2023-02-28T08:47:39;93372.53;;;8.30;100.00
6198;BME280;3132;42.622;23.328;2023-02-28T08:50:05;93359.47;;;7.76;100.00
6198;BME280;3132;42.622;23.328;2023-02-28T08:52:31;93387.38;;;8.07;100.00
6198;BME280;3132;42.622;23.328;2023-02-28T08:54:56;93398.28;;;8.53;100.00
6198;BME280;3132;42.622;23.328;2023-02-28T08:57:21;93399.19;;;9.00;100.00
6198;BME280;3132;42.622;23.328;2023-02-28T08:59:47;93366.41;;;9.04;100.00
6198;BME280;3132;42.622;23.328;2023-02-28T09:02:13;93395.50;;;9.27;100.00
6198;BME280;3132;42.622;23.328;2023-02-28T09:04:40;93371.47;;;8.84;100.00
6198;BME280;3132;42.622;23.328;2023-02-28T09:07:05;93399.38;;;9.25;100.00
6198;BME280;3132;42.622;23.328;2023-02-28T09:09:31;93401.88;;;8.78;100.00
6198;BME280;3132;42.622;23.328;2023-02-28T09:11:57;93385.72;;;8.45;100.00
6198;BME280;3132;42.622;23.328;2023-02-28T09:14:22;93393.38;;;8.88;100.00
6198;BME280;3132;42.622;23.328;2023-02-28T09:16:48;93384.81;;;8.92;100.00
6198;BME280;3132;42.622;23.328;2023-02-28T09:19:14;93378.84;;;8.92;100.00
6198;BME280;3132;42.622;23.328;2023-02-28T09:21:39;93404.06;;;9.28;100.00
6198;BME280;3132;42.622;23.328;2023-02-28T09:24:05;93387.47;;;9.39;100.00
6198;BME280;3132;42.622;23.328;2023-02-28T09:26:31;93388.09;;;10.08;100.00
6198;BME280;3132;42.622;23.328;2023-02-28T09:28:56;93381.09;;;10.13;100.00
6198;BME280;3132;42.622;23.328;2023-02-28T09:31:25;93395.16;;;10.17;100.00
6198;BME280;3132;42.622;23.328;2023-02-28T09:33:54;93394.13;;;10.18;99.68
6198;BME280;3132;42.622;23.328;2023-02-28T09:36:21;93387.41;;;10.52;99.38
6198;BME280;3132;42.622;23.328;2023-02-28T09:38:46;93363.69;;;10.64;97.46
6198;BME280;3132;42.622;23.328;2023-02-28T09:41:40;93394.25;;;10.93;95.78
6198;BME280;3132;42.622;23.328;2023-02-28T09:46:51;93382.50;;;11.01;95.22
6198;BME280;3132;42.622;23.328;2023-02-28T09:49:30;93391.91;;;11.02;93.74
6198;BME280;3132;42.622;23.328;2023-02-28T09:52:04;93378.59;;;10.78;93.61
6198;BME280;3132;42.622;23.328;2023-02-28T09:54:32;93388.50;;;10.86;93.77
6198;BME280;3132;42.622;23.328;2023-02-28T09:57:08;93394.50;;;11.02;93.35
6198;BME280;3132;42.622;23.328;2023-02-28T10:04:57;93387.41;;;11.48;91.00
6198;BME280;3132;42.622;23.328;2023-02-28T10:10:03;93374.75;;;12.00;90.04
6198;BME280;3132;42.622;23.328;2023-02-28T10:12:30;93386.66;;;12.31;88.40
6198;BME280;3132;42.622;23.328;2023-02-28T10:14:58;93384.59;;;12.23;86.54
6198;BME280;3132;42.622;23.328;2023-02-28T10:17:38;93375.22;;;12.12;85.63
6198;BME280;3132;42.622;23.328;2023-02-28T10:20:34;93381.53;;;12.11;86.40
6198;BME280;3132;42.622;23.328;2023-02-28T10:23:11;93370.84;;;11.92;86.10
6198;BME280;3132;42.622;23.328;2023-02-28T10:25:39;93366.72;;;11.81;87.34
6198;BME280;3132;42.622;23.328;2023-02-28T10:30:38;93305.13;;;11.99;86.50
6198;BME280;3132;42.622;23.328;2023-02-28T10:33:04;93362.88;;;12.66;84.18
6198;BME280;3132;42.622;23.328;2023-02-28T10:35:30;93353.22;;;13.00;85.22
6198;BME280;3132;42.622;23.328;2023-02-28T10:37:57;93368.94;;;13.34;80.05
6198;BME280;3132;42.622;23.328;2023-02-28T10:45:24;93349.56;;;13.01;81.04
6198;BME280;3132;42.622;23.328;2023-02-28T10:47:56;93345.69;;;12.88;80.95
6198;BME280;3132;42.622;23.328;2023-02-28T10:56:09;93318.69;;;12.88;80.97
6198;BME280;3132;42.622;23.328;2023-02-28T11:04:02;93267.53;;;11.85;82.58
6198;BME280;3132;42.622;23.328;2023-02-28T11:06:33;93296.00;;;11.96;83.32
6198;BME280;3132;42.622;23.328;2023-02-28T11:09:02;93310.91;;;11.96;84.34
6198;BME280;3132;42.622;23.328;2023-02-28T11:11:30;93318.16;;;12.14;83.23
6198;BME280;3132;42.622;23.328;2023-02-28T11:14:06;93306.06;;;12.23;82.17
6198;BME280;3132;42.622;23.328;2023-02-28T11:16:42;93290.50;;;11.93;83.66
6198;BME280;3132;42.622;23.328;2023-02-28T11:19:19;93313.97;;;12.08;83.70
6198;BME280;3132;42.622;23.328;2023-02-28T11:21:55;93303.38;;;11.84;83.74
6198;BME280;3132;42.622;23.328;2023-02-28T11:24:31;93292.16;;;11.74;84.53
6198;BME280;3132;42.622;23.328;2023-02-28T11:26:59;93286.88;;;11.94;83.89
6198;BME280;3132;42.622;23.328;2023-02-28T11:29:33;93302.75;;;12.07;83.72
6198;BME280;3132;42.622;23.328;2023-02-28T11:32:22;93301.91;;;12.17;83.19
6198;BME280;3132;42.622;23.328;2023-02-28T11:35:04;93302.50;;;11.99;83.59
6198;BME280;3132;42.622;23.328;2023-02-28T11:37:39;93295.88;;;12.21;83.45
6198;BME280;3132;42.622;23.328;2023-02-28T11:40:13;93293.28;;;12.16;82.12
6198;BME280;3132;42.622;23.328;2023-02-28T11:43:01;93297.94;;;12.24;82.20
6198;BME280;3132;42.622;23.328;2023-02-28T11:48:29;93292.94;;;12.28;81.77
6198;BME280;3132;42.622;23.328;2023-02-28T11:54:21;93287.72;;;12.23;82.41
6198;BME280;3132;42.622;23.328;2023-02-28T11:56:44;93282.06;;;12.11;82.26
6198;BME280;3132;42.622;23.328;2023-02-28T11:59:57;93281.66;;;11.84;81.49
6198;BME280;3132;42.622;23.328;2023-02-28T12:02:30;93274.63;;;11.79;83.36
6198;BME280;3132;42.622;23.328;2023-02-28T12:07:47;93279.00;;;11.94;82.75
6198;BME280;3132;42.622;23.328;2023-02-28T12:10:25;93279.22;;;12.02;81.95
6198;BME280;3132;42.622;23.328;2023-02-28T12:12:55;93279.22;;;12.02;82.27
6198;BME280;3132;42.622;23.328;2023-02-28T12:23:57;93270.81;;;12.05;82.35
6198;BME280;3132;42.622;23.328;2023-02-28T12:29:09;93269.28;;;11.99;82.22
6198;BME280;3132;42.622;23.328;2023-02-28T12:31:38;93280.22;;;12.06;82.91
6198;BME280;3132;42.622;23.328;2023-02-28T12:34:10;93265.94;;;11.89;81.90
6198;BME280;3132;42.622;23.328;2023-02-28T12:36:37;93276.91;;;11.91;82.34
6198;BME280;3132;42.622;23.328;2023-02-28T12:39:13;93268.44;;;12.09;82.55
6198;BME280;3132;42.622;23.328;2023-02-28T12:41:59;93276.56;;;12.07;81.78
6198;BME280;3132;42.622;23.328;2023-02-28T12:44:40;93275.78;;;12.07;81.65
6198;BME280;3132;42.622;23.328;2023-02-28T12:47:14;93273.63;;;11.60;82.77
6198;BME280;3132;42.622;23.328;2023-02-28T12:49:49;93271.03;;;11.55;84.07
6198;BME280;3132;42.622;23.328;2023-02-28T12:52:22;93201.41;;;11.10;85.23
6198;BME280;3132;42.622;23.328;2023-02-28T12:54:59;93259.31;;;11.48;85.42
6198;BME280;3132;42.622;23.328;2023-02-28T12:58:27;93264.47;;;11.68;85.87
6198;BME280;3132;42.622;23.328;2023-02-28T13:00:35;93258.22;;;11.64;84.06
6198;BME280;3132;42.622;23.328;2023-02-28T13:06:22;93272.09;;;12.08;82.59
6198;BME280;3132;42.622;23.328;2023-02-28T13:09:03;93272.81;;;11.75;83.65
6198;BME280;3132;42.622;23.328;2023-02-28T13:11:53;93266.38;;;11.42;84.72
6198;BME280;3132;42.622;23.328;2023-02-28T13:14:28;93260.16;;;11.33;85.44
6198;BME280;3132;42.622;23.328;2023-02-28T13:19:39;93260.66;;;11.30;86.92
6198;BME280;3132;42.622;23.328;2023-02-28T13:22:16;93261.44;;;11.30;86.65
6198;BME280;3132;42.622;23.328;2023-02-28T13:24:51;93259.34;;;11.38;86.54
6198;BME280;3132;42.622;23.328;2023-02-28T13:27:31;93268.50;;;11.35;86.26
6198;BME280;3132;42.622;23.328;2023-02-28T13:29:58;93266.75;;;11.00;86.99
6198;BME280;3132;42.622;23.328;2023-02-28T13:47:30;93227.88;;;11.58;83.24
6198;BME280;3132;42.622;23.328;2023-02-28T13:50:29;93255.31;;;11.60;83.54
6198;BME280;3132;42.622;23.328;2023-02-28T13:58:32;93252.91;;;11.79;81.41
6198;BME280;3132;42.622;23.328;2023-02-28T14:06:26;93243.59;;;11.53;83.56
6198;BME280;3132;42.622;23.328;2023-02-28T14:09:02;93257.19;;;11.55;83.58
6198;BME280;3132;42.622;23.328;2023-02-28T14:11:38;93248.56;;;11.49;84.30
6198;BME280;3132;42.622;23.328;2023-02-28T14:14:05;93254.13;;;11.38;85.17
6198;BME280;3132;42.622;23.328;2023-02-28T14:16:40;93252.03;;;11.34;84.72
6198;BME280;3132;42.622;23.328;2023-02-28T14:21:36;93252.34;;;11.23;83.90
6198;BME280;3132;42.622;23.328;2023-02-28T14:32:37;93256.81;;;11.07;84.47
6198;BME280;3132;42.622;23.328;2023-02-28T14:35:29;93250.81;;;11.07;84.83
6198;BME280;3132;42.622;23.328;2023-02-28T14:38:04;93250.78;;;11.12;84.83
6198;BME280;3132;42.622;23.328;2023-02-28T14:40:35;93250.31;;;11.05;83.89
6198;BME280;3132;42.622;23.328;2023-02-28T14:43:05;93258.44;;;10.78;86.55
6198;BME280;3132;42.622;23.328;2023-02-28T14:45:33;93241.50;;;10.66;86.93
6198;BME280;3132;42.622;23.328;2023-02-28T14:48:01;93232.88;;;10.20;89.03
6198;BME280;3132;42.622;23.328;2023-02-28T14:50:31;93229.25;;;10.36;87.50
6198;BME280;3132;42.622;23.328;2023-02-28T14:52:57;93240.69;;;10.60;86.78
6198;BME280;3132;42.622;23.328;2023-02-28T14:55:34;93240.97;;;10.74;84.65
6198;BME280;3132;42.622;23.328;2023-02-28T14:58:03;93219.03;;;10.20;87.83
6198;BME280;3132;42.622;23.328;2023-02-28T15:00:33;93240.44;;;10.17;88.40
6198;BME280;3132;42.622;23.328;2023-02-28T15:03:11;93230.78;;;10.17;88.67
6198;BME280;3132;42.622;23.328;2023-02-28T15:05:42;93228.72;;;10.39;88.86
6198;BME280;3132;42.622;23.328;2023-02-28T15:08:14;93232.88;;;10.45;86.15
6198;BME280;3132;42.622;23.328;2023-02-28T15:10:43;93238.09;;;10.50;86.56
6198;BME280;3132;42.622;23.328;2023-02-28T15:13:14;93240.97;;;10.44;86.85
6198;BME280;3132;42.622;23.328;2023-02-28T15:20:46;93222.44;;;10.45;85.24
6198;BME280;3132;42.622;23.328;2023-02-28T15:23:14;93241.50;;;10.41;86.47
6198;BME280;3132;42.622;23.328;2023-02-28T15:25:41;93245.16;;;10.35;85.69
6198;BME280;3132;42.622;23.328;2023-02-28T15:28:14;93244.88;;;10.31;86.71